sensor_id;sensor_type;location;lat;lon;timestamp;P1;durP1;ratioP1;P2;durP2;ratioP2
79790;SDS011;69278;52.220;5.172;2023-07-24T00:00:02;5.57;;;3.72;;
79790;SDS011;69278;52.220;5.172;2023-07-24T00:02:29;5.10;;;3.35;;
79790;SDS011;69278;52.220;5.172;2023-07-24T00:04:56;6.53;;;3.65;;
79790;SDS011;69278;52.220;5.172;2023-07-24T00:07:22;8.40;;;3.73;;
79790;SDS011;69278;52.220;5.172;2023-07-24T00:09:49;5.72;;;3.60;;
79790;SDS011;69278;52.220;5.172;2023-07-24T00:12:16;6.55;;;3.25;;
79790;SDS011;69278;52.220;5.172;2023-07-24T00:14:42;7.35;;;3.88;;
79790;SDS011;69278;52.220;5.172;2023-07-24T00:17:09;7.28;;;3.58;;
79790;SDS011;69278;52.220;5.172;2023-07-24T00:19:35;5.07;;;3.33;;
79790;SDS011;69278;52.220;5.172;2023-07-24T00:22:02;5.60;;;3.40;;
79790;SDS011;69278;52.220;5.172;2023-07-24T00:24:29;5.70;;;3.60;;
79790;SDS011;69278;52.220;5.172;2023-07-24T00:26:57;6.35;;;3.50;;
79790;SDS011;69278;52.220;5.172;2023-07-24T00:29:24;5.97;;;3.50;;
79790;SDS011;69278;52.220;5.172;2023-07-24T00:31:50;5.63;;;3.50;;
79790;SDS011;69278;52.220;5.172;2023-07-24T00:34:17;6.10;;;3.20;;
79790;SDS011;69278;52.220;5.172;2023-07-24T00:36:43;6.82;;;3.40;;
79790;SDS011;69278;52.220;5.172;2023-07-24T00:39:11;7.68;;;3.60;;
79790;SDS011;69278;52.220;5.172;2023-07-24T00:41:40;5.22;;;3.40;;
79790;SDS011;69278;52.220;5.172;2023-07-24T00:44:06;4.87;;;3.13;;
79790;SDS011;69278;52.220;5.172;2023-07-24T00:46:33;5.35;;;3.30;;
79790;SDS011;69278;52.220;5.172;2023-07-24T00:49:03;5.82;;;3.20;;
79790;SDS011;69278;52.220;5.172;2023-07-24T00:51:31;6.50;;;3.35;;
79790;SDS011;69278;52.220;5.172;2023-07-24T00:54:00;5.32;;;3.38;;
79790;SDS011;69278;52.220;5.172;2023-07-24T00:56:28;4.83;;;3.20;;
79790;SDS011;69278;52.220;5.172;2023-07-24T00:58:58;5.68;;;3.30;;
79790;SDS011;69278;52.220;5.172;2023-07-24T01:01:26;5.68;;;3.30;;
79790;SDS011;69278;52.220;5.172;2023-07-24T01:03:52;4.97;;;3.17;;
79790;SDS011;69278;52.220;5.172;2023-07-24T01:06:20;5.05;;;3.15;;
79790;SDS011;69278;52.220;5.172;2023-07-24T01:08:46;5.37;;;3.10;;
79790;SDS011;69278;52.220;5.172;2023-07-24T01:11:19;5.50;;;3.05;;
79790;SDS011;69278;52.220;5.172;2023-07-24T01:13:52;5.18;;;3.30;;
79790;SDS011;69278;52.220;5.172;2023-07-24T01:16:47;6.50;;;3.00;;
79790;SDS011;69278;52.220;5.172;2023-07-24T01:19:20;5.13;;;3.00;;
79790;SDS011;69278;52.220;5.172;2023-07-24T01:27:35;4.97;;;3.10;;
79790;SDS011;69278;52.220;5.172;2023-07-24T01:30:06;5.97;;;3.50;;
79790;SDS011;69278;52.220;5.172;2023-07-24T01:32:33;4.95;;;3.15;;
79790;SDS011;69278;52.220;5.172;2023-07-24T01:35:00;6.27;;;3.07;;
79790;SDS011;69278;52.220;5.172;2023-07-24T01:37:27;5.53;;;3.13;;
79790;SDS011;69278;52.220;5.172;2023-07-24T01:39:54;5.53;;;3.15;;
79790;SDS011;69278;52.220;5.172;2023-07-24T01:42:23;4.90;;;3.10;;
79790;SDS011;69278;52.220;5.172;2023-07-24T01:44:52;4.97;;;3.10;;
79790;SDS011;69278;52.220;5.172;2023-07-24T01:47:19;5.10;;;2.97;;
79790;SDS011;69278;52.220;5.172;2023-07-24T01:49:46;5.85;;;3.28;;
79790;SDS011;69278;52.220;5.172;2023-07-24T01:52:12;4.75;;;2.88;;
79790;SDS011;69278;52.220;5.172;2023-07-24T01:54:39;5.25;;;3.00;;
79790;SDS011;69278;52.220;5.172;2023-07-24T01:57:06;5.80;;;3.20;;
79790;SDS011;69278;52.220;5.172;2023-07-24T01:59:32;4.93;;;3.10;;
79790;SDS011;69278;52.220;5.172;2023-07-24T02:01:59;4.80;;;3.03;;
79790;SDS011;69278;52.220;5.172;2023-07-24T02:04:25;5.00;;;3.15;;
79790;SDS011;69278;52.220;5.172;2023-07-24T02:06:52;4.88;;;2.70;;
79790;SDS011;69278;52.220;5.172;2023-07-24T02:09:19;6.15;;;3.10;;
79790;SDS011;69278;52.220;5.172;2023-07-24T02:11:45;4.70;;;2.90;;
79790;SDS011;69278;52.220;5.172;2023-07-24T02:14:12;5.35;;;3.13;;
79790;SDS011;69278;52.220;5.172;2023-07-24T02:16:40;4.80;;;3.00;;
79790;SDS011;69278;52.220;5.172;2023-07-24T02:19:06;5.25;;;3.20;;
79790;SDS011;69278;52.220;5.172;2023-07-24T02:21:33;5.13;;;3.25;;
79790;SDS011;69278;52.220;5.172;2023-07-24T02:23:59;5.50;;;2.80;;
79790;SDS011;69278;52.220;5.172;2023-07-24T02:26:26;5.60;;;3.00;;
79790;SDS011;69278;52.220;5.172;2023-07-24T02:28:53;5.45;;;3.10;;
79790;SDS011;69278;52.220;5.172;2023-07-24T02:31:20;5.28;;;3.10;;
79790;SDS011;69278;52.220;5.172;2023-07-24T02:33:46;5.38;;;3.00;;
79790;SDS011;69278;52.220;5.172;2023-07-24T02:36:13;5.90;;;2.80;;
79790;SDS011;69278;52.220;5.172;2023-07-24T02:38:39;4.15;;;2.80;;
79790;SDS011;69278;52.220;5.172;2023-07-24T02:41:06;4.32;;;2.60;;
79790;SDS011;69278;52.220;5.172;2023-07-24T02:43:32;4.82;;;3.08;;
79790;SDS011;69278;52.220;5.172;2023-07-24T02:46:02;4.93;;;2.88;;
79790;SDS011;69278;52.220;5.172;2023-07-24T02:48:29;6.50;;;3.00;;
79790;SDS011;69278;52.220;5.172;2023-07-24T02:50:55;6.22;;;3.40;;
79790;SDS011;69278;52.220;5.172;2023-07-24T02:53:22;4.43;;;2.88;;
79790;SDS011;69278;52.220;5.172;2023-07-24T02:55:48;6.72;;;2.65;;
79790;SDS011;69278;52.220;5.172;2023-07-24T02:58:15;5.47;;;2.80;;
79790;SDS011;69278;52.220;5.172;2023-07-24T03:00:41;4.40;;;2.50;;
79790;SDS011;69278;52.220;5.172;2023-07-24T03:03:08;5.53;;;2.83;;
79790;SDS011;69278;52.220;5.172;2023-07-24T03:05:35;4.68;;;2.78;;
79790;SDS011;69278;52.220;5.172;2023-07-24T03:08:01;5.25;;;2.60;;
79790;SDS011;69278;52.220;5.172;2023-07-24T03:10:27;4.85;;;3.17;;
79790;SDS011;69278;52.220;5.172;2023-07-24T03:12:54;4.47;;;2.70;;
79790;SDS011;69278;52.220;5.172;2023-07-24T03:15:20;5.20;;;3.00;;
79790;SDS011;69278;52.220;5.172;2023-07-24T03:17:47;5.50;;;3.03;;
79790;SDS011;69278;52.220;5.172;2023-07-24T03:20:15;5.03;;;2.58;;
79790;SDS011;69278;52.220;5.172;2023-07-24T03:22:42;4.72;;;2.75;;
79790;SDS011;69278;52.220;5.172;2023-07-24T03:25:10;4.17;;;2.53;;
79790;SDS011;69278;52.220;5.172;2023-07-24T03:27:36;5.55;;;2.80;;
79790;SDS011;69278;52.220;5.172;2023-07-24T03:30:03;6.85;;;3.20;;
79790;SDS011;69278;52.220;5.172;2023-07-24T03:32:30;5.43;;;3.30;;
79790;SDS011;69278;52.220;5.172;2023-07-24T03:34:57;5.43;;;3.17;;
79790;SDS011;69278;52.220;5.172;2023-07-24T03:37:23;4.77;;;2.70;;
79790;SDS011;69278;52.220;5.172;2023-07-24T03:39:49;3.70;;;2.50;;
79790;SDS011;69278;52.220;5.172;2023-07-24T03:42:26;4.20;;;2.50;;
79790;SDS011;69278;52.220;5.172;2023-07-24T03:44:54;6.07;;;2.85;;
79790;SDS011;69278;52.220;5.172;2023-07-24T03:47:21;5.10;;;3.10;;
79790;SDS011;69278;52.220;5.172;2023-07-24T03:49:48;5.10;;;2.90;;
79790;SDS011;69278;52.220;5.172;2023-07-24T03:52:15;4.40;;;2.60;;
79790;SDS011;69278;52.220;5.172;2023-07-24T03:54:41;5.78;;;2.92;;
79790;SDS011;69278;52.220;5.172;2023-07-24T03:57:08;5.00;;;3.08;;
79790;SDS011;69278;52.220;5.172;2023-07-24T03:59:35;5.55;;;3.20;;
79790;SDS011;69278;52.220;5.172;2023-07-24T04:02:02;6.20;;;2.80;;
79790;SDS011;69278;52.220;5.172;2023-07-24T04:04:28;6.53;;;3.95;;
79790;SDS011;69278;52.220;5.172;2023-07-24T04:06:55;6.25;;;3.63;;
79790;SDS011;69278;52.220;5.172;2023-07-24T04:09:21;5.60;;;2.92;;
79790;SDS011;69278;52.220;5.172;2023-07-24T04:11:48;5.45;;;3.30;;
79790;SDS011;69278;52.220;5.172;2023-07-24T04:14:14;4.90;;;3.00;;
79790;SDS011;69278;52.220;5.172;2023-07-24T04:16:41;6.05;;;3.40;;
79790;SDS011;69278;52.220;5.172;2023-07-24T04:19:09;5.07;;;3.30;;
79790;SDS011;69278;52.220;5.172;2023-07-24T04:21:36;5.53;;;3.40;;
79790;SDS011;69278;52.220;5.172;2023-07-24T04:24:03;5.45;;;3.25;;
79790;SDS011;69278;52.220;5.172;2023-07-24T04:26:29;6.17;;;3.50;;
79790;SDS011;69278;52.220;5.172;2023-07-24T04:28:56;6.00;;;3.35;;
79790;SDS011;69278;52.220;5.172;2023-07-24T04:31:23;5.25;;;2.97;;
79790;SDS011;69278;52.220;5.172;2023-07-24T04:33:49;7.35;;;4.28;;
79790;SDS011;69278;52.220;5.172;2023-07-24T04:36:16;7.55;;;3.65;;
79790;SDS011;69278;52.220;5.172;2023-07-24T04:38:43;5.53;;;3.43;;
79790;SDS011;69278;52.220;5.172;2023-07-24T04:41:10;7.10;;;3.67;;
79790;SDS011;69278;52.220;5.172;2023-07-24T04:43:36;8.18;;;4.18;;
79790;SDS011;69278;52.220;5.172;2023-07-24T04:46:03;5.95;;;3.55;;
79790;SDS011;69278;52.220;5.172;2023-07-24T04:48:30;5.68;;;3.40;;
79790;SDS011;69278;52.220;5.172;2023-07-24T04:50:56;6.23;;;3.60;;
79790;SDS011;69278;52.220;5.172;2023-07-24T04:53:23;6.40;;;3.90;;
79790;SDS011;69278;52.220;5.172;2023-07-24T04:55:49;7.10;;;3.90;;
79790;SDS011;69278;52.220;5.172;2023-07-24T04:58:16;9.27;;;4.60;;
79790;SDS011;69278;52.220;5.172;2023-07-24T05:00:42;5.75;;;3.45;;
79790;SDS011;69278;52.220;5.172;2023-07-24T05:03:09;6.33;;;3.93;;
79790;SDS011;69278;52.220;5.172;2023-07-24T05:05:37;6.90;;;3.75;;
79790;SDS011;69278;52.220;5.172;2023-07-24T05:08:08;6.95;;;4.03;;
79790;SDS011;69278;52.220;5.172;2023-07-24T05:10:35;7.30;;;4.10;;
79790;SDS011;69278;52.220;5.172;2023-07-24T05:13:02;6.57;;;3.50;;
79790;SDS011;69278;52.220;5.172;2023-07-24T05:15:29;7.50;;;3.93;;
79790;SDS011;69278;52.220;5.172;2023-07-24T05:17:55;7.93;;;4.30;;
79790;SDS011;69278;52.220;5.172;2023-07-24T05:20:22;9.52;;;3.55;;
79790;SDS011;69278;52.220;5.172;2023-07-24T05:22:48;5.43;;;3.45;;
79790;SDS011;69278;52.220;5.172;2023-07-24T05:25:15;7.25;;;3.90;;
79790;SDS011;69278;52.220;5.172;2023-07-24T05:27:41;6.43;;;3.80;;
79790;SDS011;69278;52.220;5.172;2023-07-24T05:30:11;6.50;;;3.47;;
79790;SDS011;69278;52.220;5.172;2023-07-24T05:32:38;6.47;;;3.42;;
79790;SDS011;69278;52.220;5.172;2023-07-24T05:35:04;5.78;;;3.70;;
79790;SDS011;69278;52.220;5.172;2023-07-24T05:37:31;7.88;;;3.97;;
79790;SDS011;69278;52.220;5.172;2023-07-24T05:39:58;7.30;;;3.60;;
79790;SDS011;69278;52.220;5.172;2023-07-24T05:42:24;7.82;;;4.20;;
79790;SDS011;69278;52.220;5.172;2023-07-24T05:44:51;7.65;;;3.30;;
79790;SDS011;69278;52.220;5.172;2023-07-24T05:47:17;6.53;;;3.22;;
79790;SDS011;69278;52.220;5.172;2023-07-24T05:49:43;7.22;;;3.55;;
79790;SDS011;69278;52.220;5.172;2023-07-24T05:52:10;9.33;;;3.77;;
79790;SDS011;69278;52.220;5.172;2023-07-24T05:54:36;8.07;;;3.67;;
79790;SDS011;69278;52.220;5.172;2023-07-24T05:57:03;9.40;;;4.03;;
79790;SDS011;69278;52.220;5.172;2023-07-24T05:59:30;6.93;;;3.90;;
79790;SDS011;69278;52.220;5.172;2023-07-24T06:01:56;6.57;;;4.00;;
79790;SDS011;69278;52.220;5.172;2023-07-24T06:04:23;8.40;;;4.50;;
79790;SDS011;69278;52.220;5.172;2023-07-24T06:06:49;6.55;;;3.40;;
79790;SDS011;69278;52.220;5.172;2023-07-24T06:09:16;7.32;;;4.10;;
79790;SDS011;69278;52.220;5.172;2023-07-24T06:11:44;8.30;;;4.10;;
79790;SDS011;69278;52.220;5.172;2023-07-24T06:14:11;6.85;;;4.10;;
79790;SDS011;69278;52.220;5.172;2023-07-24T06:16:37;8.63;;;3.90;;
79790;SDS011;69278;52.220;5.172;2023-07-24T06:19:04;9.48;;;4.65;;
79790;SDS011;69278;52.220;5.172;2023-07-24T06:21:31;7.70;;;3.60;;
79790;SDS011;69278;52.220;5.172;2023-07-24T06:23:57;7.38;;;3.70;;
79790;SDS011;69278;52.220;5.172;2023-07-24T06:26:23;8.80;;;3.95;;
79790;SDS011;69278;52.220;5.172;2023-07-24T06:28:50;6.30;;;3.00;;
79790;SDS011;69278;52.220;5.172;2023-07-24T06:31:17;7.60;;;3.95;;
79790;SDS011;69278;52.220;5.172;2023-07-24T06:33:43;7.22;;;3.55;;
79790;SDS011;69278;52.220;5.172;2023-07-24T06:36:10;10.48;;;3.90;;
79790;SDS011;69278;52.220;5.172;2023-07-24T06:38:36;8.25;;;3.72;;
79790;SDS011;69278;52.220;5.172;2023-07-24T06:41:03;10.43;;;3.73;;
79790;SDS011;69278;52.220;5.172;2023-07-24T06:43:29;9.50;;;3.60;;
79790;SDS011;69278;52.220;5.172;2023-07-24T06:45:56;7.70;;;3.33;;
79790;SDS011;69278;52.220;5.172;2023-07-24T06:48:22;9.93;;;3.40;;
79790;SDS011;69278;52.220;5.172;2023-07-24T06:50:49;8.05;;;3.28;;
79790;SDS011;69278;52.220;5.172;2023-07-24T06:53:16;7.70;;;3.20;;
79790;SDS011;69278;52.220;5.172;2023-07-24T06:55:42;8.13;;;3.47;;
79790;SDS011;69278;52.220;5.172;2023-07-24T06:58:08;5.93;;;2.97;;
79790;SDS011;69278;52.220;5.172;2023-07-24T07:00:35;10.43;;;3.53;;
79790;SDS011;69278;52.220;5.172;2023-07-24T07:03:02;8.43;;;3.28;;
79790;SDS011;69278;52.220;5.172;2023-07-24T07:05:28;6.63;;;3.23;;
79790;SDS011;69278;52.220;5.172;2023-07-24T07:07:55;7.10;;;2.85;;
79790;SDS011;69278;52.220;5.172;2023-07-24T07:10:21;9.70;;;3.00;;
79790;SDS011;69278;52.220;5.172;2023-07-24T07:12:48;7.20;;;3.10;;
79790;SDS011;69278;52.220;5.172;2023-07-24T07:15:14;6.28;;;2.80;;
79790;SDS011;69278;52.220;5.172;2023-07-24T07:17:41;10.70;;;3.10;;
79790;SDS011;69278;52.220;5.172;2023-07-24T07:20:08;7.88;;;2.70;;
79790;SDS011;69278;52.220;5.172;2023-07-24T07:22:34;5.88;;;2.80;;
79790;SDS011;69278;52.220;5.172;2023-07-24T07:25:01;7.55;;;3.15;;
79790;SDS011;69278;52.220;5.172;2023-07-24T07:27:27;6.15;;;2.90;;
79790;SDS011;69278;52.220;5.172;2023-07-24T07:29:54;3.97;;;2.03;;
79790;SDS011;69278;52.220;5.172;2023-07-24T07:32:20;5.97;;;2.70;;
79790;SDS011;69278;52.220;5.172;2023-07-24T07:34:47;10.88;;;3.30;;
79790;SDS011;69278;52.220;5.172;2023-07-24T07:37:13;6.95;;;2.90;;
79790;SDS011;69278;52.220;5.172;2023-07-24T07:39:39;5.88;;;2.70;;
79790;SDS011;69278;52.220;5.172;2023-07-24T07:42:06;7.53;;;3.20;;
79790;SDS011;69278;52.220;5.172;2023-07-24T07:44:44;7.82;;;2.97;;
79790;SDS011;69278;52.220;5.172;2023-07-24T07:47:11;10.88;;;3.20;;
79790;SDS011;69278;52.220;5.172;2023-07-24T07:49:38;7.63;;;3.28;;
79790;SDS011;69278;52.220;5.172;2023-07-24T07:52:08;6.32;;;3.15;;
79790;SDS011;69278;52.220;5.172;2023-07-24T07:54:35;7.80;;;3.60;;
79790;SDS011;69278;52.220;5.172;2023-07-24T07:57:02;7.82;;;3.22;;
79790;SDS011;69278;52.220;5.172;2023-07-24T07:59:31;9.30;;;3.17;;
79790;SDS011;69278;52.220;5.172;2023-07-24T08:01:59;7.00;;;3.30;;
79790;SDS011;69278;52.220;5.172;2023-07-24T08:04:26;7.88;;;3.60;;
79790;SDS011;69278;52.220;5.172;2023-07-24T08:06:52;7.40;;;3.80;;
79790;SDS011;69278;52.220;5.172;2023-07-24T08:09:19;8.00;;;3.17;;
79790;SDS011;69278;52.220;5.172;2023-07-24T08:11:48;14.57;;;4.60;;
79790;SDS011;69278;52.220;5.172;2023-07-24T08:14:14;5.80;;;3.35;;
79790;SDS011;69278;52.220;5.172;2023-07-24T08:16:40;7.63;;;3.30;;
79790;SDS011;69278;52.220;5.172;2023-07-24T08:19:07;16.60;;;3.50;;
79790;SDS011;69278;52.220;5.172;2023-07-24T08:21:34;7.63;;;3.60;;
79790;SDS011;69278;52.220;5.172;2023-07-24T08:24:01;5.10;;;2.65;;
79790;SDS011;69278;52.220;5.172;2023-07-24T08:26:28;9.90;;;3.20;;
79790;SDS011;69278;52.220;5.172;2023-07-24T08:28:55;7.30;;;3.17;;
79790;SDS011;69278;52.220;5.172;2023-07-24T08:31:22;6.97;;;2.83;;
79790;SDS011;69278;52.220;5.172;2023-07-24T08:33:48;6.30;;;3.38;;
79790;SDS011;69278;52.220;5.172;2023-07-24T08:36:15;11.10;;;3.72;;
79790;SDS011;69278;52.220;5.172;2023-07-24T08:38:42;6.65;;;3.80;;
79790;SDS011;69278;52.220;5.172;2023-07-24T08:41:10;8.50;;;3.60;;
79790;SDS011;69278;52.220;5.172;2023-07-24T08:43:38;7.20;;;3.93;;
79790;SDS011;69278;52.220;5.172;2023-07-24T08:46:06;7.90;;;4.10;;
79790;SDS011;69278;52.220;5.172;2023-07-24T08:48:41;8.13;;;4.85;;
79790;SDS011;69278;52.220;5.172;2023-07-24T08:51:12;10.82;;;4.47;;
79790;SDS011;69278;52.220;5.172;2023-07-24T08:53:40;6.38;;;3.40;;
79790;SDS011;69278;52.220;5.172;2023-07-24T08:56:09;8.80;;;4.47;;
79790;SDS011;69278;52.220;5.172;2023-07-24T08:58:38;12.68;;;4.72;;
79790;SDS011;69278;52.220;5.172;2023-07-24T09:01:06;8.70;;;4.40;;
79790;SDS011;69278;52.220;5.172;2023-07-24T09:03:33;7.35;;;4.25;;
79790;SDS011;69278;52.220;5.172;2023-07-24T09:06:00;10.82;;;5.18;;
79790;SDS011;69278;52.220;5.172;2023-07-24T09:08:39;10.47;;;5.20;;
79790;SDS011;69278;52.220;5.172;2023-07-24T09:11:08;8.82;;;5.25;;
79790;SDS011;69278;52.220;5.172;2023-07-24T09:13:36;9.15;;;5.40;;
79790;SDS011;69278;52.220;5.172;2023-07-24T09:16:04;10.00;;;5.75;;
79790;SDS011;69278;52.220;5.172;2023-07-24T09:18:40;9.90;;;5.25;;
79790;SDS011;69278;52.220;5.172;2023-07-24T09:21:08;10.80;;;4.80;;
79790;SDS011;69278;52.220;5.172;2023-07-24T09:23:36;9.35;;;4.65;;
79790;SDS011;69278;52.220;5.172;2023-07-24T09:26:06;8.38;;;4.18;;
79790;SDS011;69278;52.220;5.172;2023-07-24T09:28:33;7.25;;;4.50;;
79790;SDS011;69278;52.220;5.172;2023-07-24T09:31:01;11.18;;;4.88;;
79790;SDS011;69278;52.220;5.172;2023-07-24T09:33:35;10.90;;;4.77;;
79790;SDS011;69278;52.220;5.172;2023-07-24T09:36:06;8.15;;;4.38;;
79790;SDS011;69278;52.220;5.172;2023-07-24T09:38:35;10.65;;;4.95;;
79790;SDS011;69278;52.220;5.172;2023-07-24T09:41:02;9.55;;;4.90;;
79790;SDS011;69278;52.220;5.172;2023-07-24T09:43:29;9.30;;;5.20;;
79790;SDS011;69278;52.220;5.172;2023-07-24T09:46:06;9.97;;;5.10;;
79790;SDS011;69278;52.220;5.172;2023-07-24T09:48:35;10.13;;;5.57;;
79790;SDS011;69278;52.220;5.172;2023-07-24T09:51:05;9.25;;;5.90;;
79790;SDS011;69278;52.220;5.172;2023-07-24T09:53:44;13.15;;;6.15;;
79790;SDS011;69278;52.220;5.172;2023-07-24T09:56:18;12.35;;;6.10;;
79790;SDS011;69278;52.220;5.172;2023-07-24T09:59:04;13.10;;;6.40;;
79790;SDS011;69278;52.220;5.172;2023-07-24T10:01:32;11.73;;;6.00;;
79790;SDS011;69278;52.220;5.172;2023-07-24T10:04:00;10.30;;;5.70;;
79790;SDS011;69278;52.220;5.172;2023-07-24T10:06:28;11.65;;;6.20;;
79790;SDS011;69278;52.220;5.172;2023-07-24T10:08:56;11.55;;;5.60;;
79790;SDS011;69278;52.220;5.172;2023-07-24T10:11:23;11.63;;;5.77;;
79790;SDS011;69278;52.220;5.172;2023-07-24T10:13:51;10.68;;;5.55;;
79790;SDS011;69278;52.220;5.172;2023-07-24T10:16:18;9.70;;;4.80;;
79790;SDS011;69278;52.220;5.172;2023-07-24T10:18:45;7.93;;;4.63;;
79790;SDS011;69278;52.220;5.172;2023-07-24T10:21:12;9.48;;;4.68;;
79790;SDS011;69278;52.220;5.172;2023-07-24T10:23:43;9.20;;;4.90;;
79790;SDS011;69278;52.220;5.172;2023-07-24T10:26:12;8.85;;;5.07;;
79790;SDS011;69278;52.220;5.172;2023-07-24T10:28:42;8.05;;;4.63;;
79790;SDS011;69278;52.220;5.172;2023-07-24T10:31:18;9.93;;;4.90;;
79790;SDS011;69278;52.220;5.172;2023-07-24T10:33:46;9.05;;;5.18;;
79790;SDS011;69278;52.220;5.172;2023-07-24T10:36:16;8.83;;;4.87;;
79790;SDS011;69278;52.220;5.172;2023-07-24T10:38:45;10.57;;;5.60;;
79790;SDS011;69278;52.220;5.172;2023-07-24T10:41:13;12.13;;;5.68;;
79790;SDS011;69278;52.220;5.172;2023-07-24T10:43:43;9.45;;;5.50;;
79790;SDS011;69278;52.220;5.172;2023-07-24T10:46:15;10.52;;;4.70;;
79790;SDS011;69278;52.220;5.172;2023-07-24T10:48:44;9.13;;;5.10;;
79790;SDS011;69278;52.220;5.172;2023-07-24T10:51:12;11.55;;;6.03;;
79790;SDS011;69278;52.220;5.172;2023-07-24T10:53:43;10.70;;;6.22;;
79790;SDS011;69278;52.220;5.172;2023-07-24T10:56:12;10.20;;;6.35;;
79790;SDS011;69278;52.220;5.172;2023-07-24T10:58:38;9.93;;;6.18;;
79790;SDS011;69278;52.220;5.172;2023-07-24T11:01:05;10.17;;;6.20;;
79790;SDS011;69278;52.220;5.172;2023-07-24T11:03:37;9.93;;;5.38;;
79790;SDS011;69278;52.220;5.172;2023-07-24T11:06:04;10.30;;;5.40;;
79790;SDS011;69278;52.220;5.172;2023-07-24T11:08:30;9.80;;;5.60;;
79790;SDS011;69278;52.220;5.172;2023-07-24T11:10:58;10.63;;;5.70;;
79790;SDS011;69278;52.220;5.172;2023-07-24T11:13:25;8.80;;;4.33;;
79790;SDS011;69278;52.220;5.172;2023-07-24T11:15:53;7.47;;;4.40;;
79790;SDS011;69278;52.220;5.172;2023-07-24T11:18:21;11.40;;;4.90;;
79790;SDS011;69278;52.220;5.172;2023-07-24T11:20:50;10.93;;;4.88;;
79790;SDS011;69278;52.220;5.172;2023-07-24T11:23:18;7.60;;;3.78;;
79790;SDS011;69278;52.220;5.172;2023-07-24T11:25:45;6.33;;;3.80;;
79790;SDS011;69278;52.220;5.172;2023-07-24T11:28:13;7.63;;;3.92;;
79790;SDS011;69278;52.220;5.172;2023-07-24T11:30:42;5.38;;;3.13;;
79790;SDS011;69278;52.220;5.172;2023-07-24T11:33:10;8.27;;;3.35;;
79790;SDS011;69278;52.220;5.172;2023-07-24T11:35:42;6.28;;;3.45;;
79790;SDS011;69278;52.220;5.172;2023-07-24T11:38:10;6.87;;;3.80;;
79790;SDS011;69278;52.220;5.172;2023-07-24T11:40:38;8.45;;;3.63;;
79790;SDS011;69278;52.220;5.172;2023-07-24T11:43:16;7.60;;;3.60;;
79790;SDS011;69278;52.220;5.172;2023-07-24T11:45:44;6.93;;;3.67;;
79790;SDS011;69278;52.220;5.172;2023-07-24T11:48:13;6.82;;;3.50;;
79790;SDS011;69278;52.220;5.172;2023-07-24T11:50:43;5.60;;;3.17;;
79790;SDS011;69278;52.220;5.172;2023-07-24T11:53:21;6.45;;;3.50;;
79790;SDS011;69278;52.220;5.172;2023-07-24T11:55:49;7.15;;;3.85;;
79790;SDS011;69278;52.220;5.172;2023-07-24T11:58:20;5.93;;;3.40;;
79790;SDS011;69278;52.220;5.172;2023-07-24T12:00:47;6.75;;;3.70;;
79790;SDS011;69278;52.220;5.172;2023-07-24T12:03:21;5.77;;;3.20;;
79790;SDS011;69278;52.220;5.172;2023-07-24T12:05:51;7.05;;;3.70;;
79790;SDS011;69278;52.220;5.172;2023-07-24T12:08:19;8.23;;;3.60;;
79790;SDS011;69278;52.220;5.172;2023-07-24T12:10:50;5.78;;;3.80;;
79790;SDS011;69278;52.220;5.172;2023-07-24T12:13:16;9.13;;;3.50;;
79790;SDS011;69278;52.220;5.172;2023-07-24T12:15:46;7.03;;;3.60;;
79790;SDS011;69278;52.220;5.172;2023-07-24T12:18:14;6.70;;;3.88;;
79790;SDS011;69278;52.220;5.172;2023-07-24T12:20:41;8.18;;;2.80;;
79790;SDS011;69278;52.220;5.172;2023-07-24T12:23:08;6.03;;;3.65;;
79790;SDS011;69278;52.220;5.172;2023-07-24T12:25:34;7.15;;;3.42;;
79790;SDS011;69278;52.220;5.172;2023-07-24T12:28:01;5.77;;;3.07;;
79790;SDS011;69278;52.220;5.172;2023-07-24T12:30:27;5.80;;;3.30;;
79790;SDS011;69278;52.220;5.172;2023-07-24T12:32:54;4.53;;;2.70;;
79790;SDS011;69278;52.220;5.172;2023-07-24T12:35:20;5.97;;;3.15;;
79790;SDS011;69278;52.220;5.172;2023-07-24T12:37:47;6.10;;;3.30;;
79790;SDS011;69278;52.220;5.172;2023-07-24T12:40:14;4.63;;;3.03;;
79790;SDS011;69278;52.220;5.172;2023-07-24T12:42:43;6.85;;;2.63;;
79790;SDS011;69278;52.220;5.172;2023-07-24T12:45:09;4.78;;;2.80;;
79790;SDS011;69278;52.220;5.172;2023-07-24T12:47:36;5.22;;;2.70;;
79790;SDS011;69278;52.220;5.172;2023-07-24T12:50:03;4.32;;;2.53;;
79790;SDS011;69278;52.220;5.172;2023-07-24T12:52:33;6.27;;;2.80;;
79790;SDS011;69278;52.220;5.172;2023-07-24T12:54:59;4.32;;;2.70;;
79790;SDS011;69278;52.220;5.172;2023-07-24T12:57:28;4.47;;;2.67;;
79790;SDS011;69278;52.220;5.172;2023-07-24T12:59:55;3.65;;;2.65;;
79790;SDS011;69278;52.220;5.172;2023-07-24T13:02:21;4.68;;;2.38;;
79790;SDS011;69278;52.220;5.172;2023-07-24T13:04:48;3.90;;;2.50;;
79790;SDS011;69278;52.220;5.172;2023-07-24T13:07:15;3.22;;;2.03;;
79790;SDS011;69278;52.220;5.172;2023-07-24T13:09:42;4.88;;;2.40;;
79790;SDS011;69278;52.220;5.172;2023-07-24T13:12:08;3.13;;;1.92;;
79790;SDS011;69278;52.220;5.172;2023-07-24T13:14:35;3.83;;;2.08;;
79790;SDS011;69278;52.220;5.172;2023-07-24T13:17:05;3.50;;;2.37;;
79790;SDS011;69278;52.220;5.172;2023-07-24T13:19:32;4.93;;;2.20;;
79790;SDS011;69278;52.220;5.172;2023-07-24T13:21:58;3.22;;;1.90;;
79790;SDS011;69278;52.220;5.172;2023-07-24T13:24:25;2.92;;;1.48;;
79790;SDS011;69278;52.220;5.172;2023-07-24T13:26:51;3.47;;;1.85;;
79790;SDS011;69278;52.220;5.172;2023-07-24T13:29:18;3.20;;;1.87;;
79790;SDS011;69278;52.220;5.172;2023-07-24T13:31:45;2.88;;;1.80;;
79790;SDS011;69278;52.220;5.172;2023-07-24T13:34:11;3.47;;;1.73;;
79790;SDS011;69278;52.220;5.172;2023-07-24T13:36:38;5.60;;;1.90;;
79790;SDS011;69278;52.220;5.172;2023-07-24T13:39:04;2.67;;;1.88;;
79790;SDS011;69278;52.220;5.172;2023-07-24T13:41:32;3.43;;;1.73;;
79790;SDS011;69278;52.220;5.172;2023-07-24T13:43:59;4.50;;;1.70;;
79790;SDS011;69278;52.220;5.172;2023-07-24T13:46:26;4.18;;;1.90;;
79790;SDS011;69278;52.220;5.172;2023-07-24T13:48:52;3.95;;;1.88;;
79790;SDS011;69278;52.220;5.172;2023-07-24T13:51:19;4.45;;;2.00;;
79790;SDS011;69278;52.220;5.172;2023-07-24T13:53:45;4.23;;;2.10;;
79790;SDS011;69278;52.220;5.172;2023-07-24T13:56:14;2.85;;;1.77;;
79790;SDS011;69278;52.220;5.172;2023-07-24T13:58:41;5.40;;;1.92;;
79790;SDS011;69278;52.220;5.172;2023-07-24T14:01:07;8.40;;;1.73;;
79790;SDS011;69278;52.220;5.172;2023-07-24T14:03:34;3.88;;;1.92;;
79790;SDS011;69278;52.220;5.172;2023-07-24T14:06:01;3.37;;;1.60;;
79790;SDS011;69278;52.220;5.172;2023-07-24T14:08:28;3.80;;;1.73;;
79790;SDS011;69278;52.220;5.172;2023-07-24T14:10:54;3.63;;;1.90;;
79790;SDS011;69278;52.220;5.172;2023-07-24T14:13:20;5.93;;;2.10;;
79790;SDS011;69278;52.220;5.172;2023-07-24T14:15:47;4.75;;;2.40;;
79790;SDS011;69278;52.220;5.172;2023-07-24T14:18:17;3.57;;;1.93;;
79790;SDS011;69278;52.220;5.172;2023-07-24T14:20:44;3.45;;;1.77;;
79790;SDS011;69278;52.220;5.172;2023-07-24T14:23:10;4.10;;;1.85;;
79790;SDS011;69278;52.220;5.172;2023-07-24T14:25:37;4.10;;;2.10;;
79790;SDS011;69278;52.220;5.172;2023-07-24T14:28:03;3.40;;;1.90;;
79790;SDS011;69278;52.220;5.172;2023-07-24T14:30:30;5.80;;;1.90;;
79790;SDS011;69278;52.220;5.172;2023-07-24T14:32:56;5.10;;;2.08;;
79790;SDS011;69278;52.220;5.172;2023-07-24T14:35:23;4.60;;;2.30;;
79790;SDS011;69278;52.220;5.172;2023-07-24T14:37:49;5.22;;;1.80;;
79790;SDS011;69278;52.220;5.172;2023-07-24T14:40:16;6.05;;;1.63;;
79790;SDS011;69278;52.220;5.172;2023-07-24T14:42:43;4.60;;;2.00;;
79790;SDS011;69278;52.220;5.172;2023-07-24T14:45:09;3.80;;;1.70;;
79790;SDS011;69278;52.220;5.172;2023-07-24T14:47:36;5.45;;;1.85;;
79790;SDS011;69278;52.220;5.172;2023-07-24T14:50:02;3.65;;;1.60;;
79790;SDS011;69278;52.220;5.172;2023-07-24T14:52:29;4.18;;;1.85;;